createdAt,value
2022-10-18T00:01:45.965Z,96.90
2022-10-18T00:03:52.966Z,96.60
2022-10-18T00:05:59.840Z,96.40
2022-10-18T00:08:07.019Z,96.50
2022-10-18T00:10:14.489Z,96.20
2022-10-18T00:12:21.841Z,96.40
2022-10-18T00:14:29.023Z,96.40
2022-10-18T00:16:36.310Z,96.10
2022-10-18T00:18:45.796Z,96.20
2022-10-18T00:21:02.036Z,96.00
2022-10-18T00:23:09.071Z,96.10
2022-10-18T00:25:16.604Z,96.10
2022-10-18T00:27:23.534Z,96.00
2022-10-18T00:29:30.715Z,95.80
2022-10-18T00:31:39.479Z,95.40
2022-10-18T00:33:49.377Z,95.00
2022-10-18T00:35:56.252Z,94.70
2022-10-18T00:38:03.639Z,94.40
2022-10-18T00:40:12.051Z,94.00
2022-10-18T00:42:21.123Z,94.00
2022-10-18T00:45:06.449Z,93.80
2022-10-18T00:47:15.218Z,93.80
2022-10-18T00:49:27.569Z,93.70
2022-10-18T00:51:38.287Z,93.50
2022-10-18T00:53:45.419Z,93.20
2022-10-18T00:55:52.750Z,92.60
2022-10-18T00:58:00.346Z,91.90
2022-10-18T01:00:10.905Z,91.40
2022-10-18T01:02:19.277Z,90.80
2022-10-18T01:04:28.545Z,90.50
2022-10-18T01:06:37.162Z,89.80
2022-10-18T01:08:51.764Z,89.40
2022-10-18T01:11:05.502Z,89.20
2022-10-18T01:13:25.621Z,89.30
2022-10-18T01:15:35.392Z,89.10
2022-10-18T01:17:55.356Z,88.50
2022-10-18T01:20:44.479Z,87.80
2022-10-18T01:22:58.053Z,86.90
2022-10-18T01:25:13.633Z,87.00
2022-10-18T01:27:41.599Z,87.10
2022-10-18T01:30:04.039Z,87.00
2022-10-18T01:32:15.728Z,87.10
2022-10-18T01:34:23.730Z,86.30
2022-10-18T01:36:34.774Z,85.90
2022-10-18T01:38:42.910Z,85.10
2022-10-18T01:40:53.873Z,84.50
2022-10-18T01:43:01.009Z,84.70
2022-10-18T01:45:09.670Z,85.00
2022-10-18T01:47:19.923Z,83.70
2022-10-18T01:49:28.030Z,83.00
2022-10-18T01:51:36.643Z,83.10
2022-10-18T01:53:43.882Z,82.30
2022-10-18T01:55:59.505Z,81.40
2022-10-18T01:58:13.609Z,80.30
2022-10-18T02:00:25.549Z,80.50
2022-10-18T02:02:45.881Z,80.70
2022-10-18T02:05:02.651Z,80.40
2022-10-18T02:07:26.510Z,79.20
2022-10-18T02:09:41.372Z,75.50
2022-10-18T02:11:51.933Z,76.60
2022-10-18T02:14:02.903Z,76.90
2022-10-18T02:16:15.415Z,75.60
2022-10-18T02:18:28.826Z,73.50
2022-10-18T02:20:36.335Z,73.70
2022-10-18T02:22:46.941Z,72.40
2022-10-18T02:24:57.807Z,71.50
2022-10-18T02:27:04.942Z,72.50
2022-10-18T02:29:12.488Z,69.40
2022-10-18T02:31:27.342Z,68.90
2022-10-18T02:33:42.925Z,68.20
2022-10-18T02:35:54.604Z,68.70
2022-10-18T02:38:02.512Z,69.10
2022-10-18T02:40:12.197Z,70.60
2022-10-18T02:42:19.956Z,69.10
2022-10-18T02:44:27.222Z,69.80
2022-10-18T02:46:34.097Z,67.90
2022-10-18T02:48:43.073Z,68.70
2022-10-18T02:50:49.997Z,69.60
2022-10-18T02:52:57.337Z,68.70
2022-10-18T02:55:04.364Z,66.40
2022-10-18T02:57:11.444Z,66.90
2022-10-18T02:59:18.723Z,66.80
2022-10-18T03:01:26.076Z,67.00
2022-10-18T03:03:33.036Z,67.30
2022-10-18T03:05:42.061Z,67.10
2022-10-18T03:07:48.987Z,66.60
2022-10-18T03:09:56.628Z,66.50
2022-10-18T03:12:03.610Z,65.00
2022-10-18T03:14:10.900Z,66.40
2022-10-18T03:16:17.814Z,64.40
2022-10-18T03:18:25.065Z,65.10
2022-10-18T03:20:32.129Z,63.70
2022-10-18T03:22:40.951Z,62.30
2022-10-18T03:24:47.925Z,64.20
2022-10-18T03:26:54.805Z,63.20
2022-10-18T03:29:01.961Z,63.70
2022-10-18T03:31:09.109Z,63.70
2022-10-18T03:33:16.394Z,64.10
2022-10-18T03:35:23.476Z,62.40
2022-10-18T03:37:33.422Z,62.30
2022-10-18T03:39:42.086Z,59.90
2022-10-18T03:41:49.479Z,61.50
2022-10-18T03:43:56.297Z,61.60
2022-10-18T03:46:03.377Z,62.20
2022-10-18T03:48:10.611Z,60.80
2022-10-18T03:50:17.998Z,61.70
2022-10-18T03:52:24.972Z,61.90
2022-10-18T03:54:32.051Z,61.20
2022-10-18T03:56:40.719Z,60.50
2022-10-18T03:58:47.897Z,61.40
2022-10-18T04:00:55.675Z,62.10
2022-10-18T04:03:02.878Z,62.50
2022-10-18T04:05:10.261Z,62.50
2022-10-18T04:07:17.705Z,60.90
2022-10-18T04:09:24.783Z,61.00
2022-10-18T04:11:32.169Z,56.50
2022-10-18T04:13:40.785Z,57.10
2022-10-18T04:15:47.769Z,58.40
2022-10-18T04:17:54.792Z,58.70
2022-10-18T04:20:01.768Z,57.10
2022-10-18T04:22:09.046Z,58.00
2022-10-18T04:24:15.976Z,58.10
2022-10-18T04:26:23.890Z,57.70
2022-10-18T04:28:36.891Z,56.40
2022-10-18T04:30:45.966Z,57.00
2022-10-18T04:32:52.942Z,56.60
2022-10-18T04:35:00.236Z,56.00
2022-10-18T04:37:07.364Z,57.10
2022-10-18T04:39:14.497Z,58.20
2022-10-18T04:41:21.927Z,55.60
2022-10-18T04:43:29.467Z,55.80
2022-10-18T04:45:36.440Z,56.20
2022-10-18T04:47:45.473Z,55.80
2022-10-18T04:49:52.496Z,56.10
2022-10-18T04:51:59.677Z,55.80
2022-10-18T04:54:06.498Z,56.20
2022-10-18T04:56:13.680Z,54.50
2022-10-18T04:58:21.075Z,53.10
2022-10-18T05:00:28.253Z,55.30
2022-10-18T05:02:35.370Z,55.70
2022-10-18T05:04:44.762Z,55.80
2022-10-18T05:06:51.689Z,54.00
2022-10-18T05:11:20.187Z,53.80
2022-10-18T05:13:27.113Z,55.40
2022-10-18T05:15:34.342Z,52.60
2022-10-18T05:17:41.327Z,55.00
2022-10-18T05:19:50.139Z,55.70
2022-10-18T05:21:57.118Z,53.60
2022-10-18T05:24:04.511Z,52.00
2022-10-18T05:26:11.732Z,51.30
2022-10-18T05:28:38.831Z,53.00
2022-10-18T05:30:46.322Z,53.30
2022-10-18T05:32:53.348Z,54.80
2022-10-18T05:35:01.927Z,53.50
2022-10-18T05:37:08.838Z,55.60
2022-10-18T05:39:15.875Z,56.90
2022-10-18T05:41:23.098Z,55.30
2022-10-18T05:43:31.918Z,53.80
2022-10-18T05:45:39.156Z,54.10
2022-10-18T05:47:46.084Z,53.60
2022-10-18T05:49:53.107Z,53.20
2022-10-18T05:52:01.674Z,54.60
2022-10-18T05:54:09.472Z,53.70
2022-10-18T05:56:16.288Z,52.00
2022-10-18T05:58:23.114Z,52.90
2022-10-18T06:00:30.088Z,51.80
2022-10-18T06:02:37.271Z,52.40
2022-10-18T06:04:44.964Z,52.50
2022-10-18T06:06:52.051Z,51.40
2022-10-18T06:09:00.717Z,52.40
2022-10-18T06:11:11.065Z,51.20
2022-10-18T06:13:17.995Z,51.10
2022-10-18T06:15:25.227Z,51.40
2022-10-18T06:17:32.678Z,51.60
2022-10-18T06:19:40.001Z,51.90
2022-10-18T06:21:47.845Z,51.10
2022-10-18T06:23:55.793Z,52.10
2022-10-18T06:26:08.873Z,51.60
2022-10-18T06:28:16.148Z,51.90
2022-10-18T06:30:22.970Z,52.00
2022-10-18T06:32:30.236Z,51.70
2022-10-18T06:34:37.807Z,52.20
2022-10-18T06:36:45.133Z,52.30
2022-10-18T06:38:51.901Z,51.70
2022-10-18T06:40:59.393Z,52.00
2022-10-18T06:43:20.496Z,51.00
2022-10-18T06:45:27.478Z,50.60
2022-10-18T06:47:34.452Z,49.70
2022-10-18T06:49:41.740Z,50.60
2022-10-18T06:51:48.691Z,50.70
2022-10-18T06:54:18.648Z,51.20
2022-10-18T06:56:22.800Z,50.50
2022-10-18T06:58:31.826Z,50.90
2022-10-18T07:00:39.148Z,51.30
2022-10-18T07:02:46.228Z,50.50
2022-10-18T07:04:53.204Z,50.70
2022-10-18T07:07:00.897Z,50.60
2022-10-18T07:09:07.827Z,51.60
2022-10-18T07:11:20.752Z,50.20
2022-10-18T07:13:33.388Z,50.60
2022-10-18T07:15:42.579Z,50.20
2022-10-18T07:17:50.023Z,50.20
2022-10-18T07:19:57.256Z,49.80
2022-10-18T07:22:04.430Z,50.20
2022-10-18T07:24:11.777Z,50.50
2022-10-18T07:26:20.075Z,51.00
2022-10-18T07:28:27.228Z,51.20
2022-10-18T07:30:34.232Z,50.10
2022-10-18T07:32:43.410Z,49.10
2022-10-18T07:34:50.387Z,48.80
2022-10-18T07:36:58.289Z,49.10
2022-10-18T07:39:05.220Z,48.60
2022-10-18T07:41:14.544Z,48.30
2022-10-18T07:43:21.732Z,48.90
2022-10-18T07:45:28.907Z,48.90
2022-10-18T07:47:36.060Z,49.00
2022-10-18T07:49:45.269Z,48.90
2022-10-18T07:51:52.147Z,49.20
2022-10-18T07:53:59.380Z,49.20
2022-10-18T07:56:09.567Z,50.60
2022-10-18T07:58:16.962Z,50.30
2022-10-18T08:00:24.144Z,50.20
2022-10-18T08:02:31.234Z,50.30
2022-10-18T08:04:38.149Z,50.50
2022-10-18T08:06:47.541Z,50.60
2022-10-18T08:08:55.277Z,50.30
2022-10-18T08:11:07.736Z,49.70
2022-10-18T08:13:14.692Z,48.90
2022-10-18T08:15:25.017Z,50.10
2022-10-18T08:17:32.174Z,50.20
2022-10-18T08:19:48.237Z,50.60
2022-10-18T08:22:07.093Z,50.20
2022-10-18T08:24:14.322Z,50.00
2022-10-18T08:26:22.323Z,51.10
2022-10-18T08:28:29.744Z,50.80
2022-10-18T08:30:38.378Z,51.00
2022-10-18T08:32:45.560Z,51.50
2022-10-18T08:34:52.441Z,51.60
2022-10-18T08:36:59.622Z,52.00
2022-10-18T08:39:08.598Z,52.00
2022-10-18T08:41:49.462Z,52.00
2022-10-18T08:44:07.117Z,52.80
2022-10-18T08:46:16.265Z,53.70
2022-10-18T08:48:37.422Z,53.40
2022-10-18T08:50:44.967Z,52.90
2022-10-18T08:52:56.655Z,51.80
2022-10-18T08:55:09.112Z,52.20
2022-10-18T08:57:19.665Z,52.40
2022-10-18T08:59:26.699Z,52.30
2022-10-18T09:01:46.155Z,52.90
2022-10-18T09:04:14.592Z,53.10
2022-10-18T09:06:28.942Z,52.40
2022-10-18T09:09:02.085Z,52.90
2022-10-18T09:11:24.466Z,53.00
2022-10-18T09:13:58.134Z,53.20
2022-10-18T09:16:06.947Z,53.20
2022-10-18T09:18:27.343Z,53.40
2022-10-18T09:20:40.978Z,53.80
2022-10-18T09:22:57.417Z,53.70
2022-10-18T09:25:11.520Z,54.10
2022-10-18T09:27:22.121Z,54.40
2022-10-18T09:29:49.836Z,54.80
2022-10-18T09:32:05.832Z,54.70
2022-10-18T09:34:18.234Z,55.00
2022-10-18T09:36:31.604Z,55.30
2022-10-18T09:38:45.290Z,55.60
2022-10-18T09:40:59.028Z,55.60
2022-10-18T09:43:14.250Z,55.20
2022-10-18T09:45:29.618Z,55.80
2022-10-18T09:47:41.459Z,56.00
2022-10-18T09:49:51.617Z,56.10
2022-10-18T09:51:59.766Z,56.80
2022-10-18T09:54:23.844Z,57.20
2022-10-18T09:56:37.879Z,57.30
2022-10-18T09:58:52.438Z,57.30
2022-10-18T10:00:59.877Z,56.90
2022-10-18T10:03:15.813Z,57.10
2022-10-18T10:05:23.516Z,57.60
2022-10-18T10:07:34.789Z,56.90
2022-10-18T10:09:44.319Z,56.80
2022-10-18T10:11:52.339Z,57.00
2022-10-18T10:14:12.590Z,57.60
2022-10-18T10:16:19.690Z,57.70
2022-10-18T10:18:28.927Z,58.20
2022-10-18T10:20:40.000Z,58.50
2022-10-18T10:22:49.534Z,58.40
2022-10-18T10:24:58.613Z,58.60
2022-10-18T10:27:09.022Z,58.60
2022-10-18T10:29:48.521Z,58.70
2022-10-18T10:32:06.694Z,59.80
2022-10-18T10:34:23.405Z,59.00
2022-10-18T10:36:31.144Z,59.00
2022-10-18T10:38:39.257Z,59.20
2022-10-18T10:46:03.519Z,61.20
2022-10-18T10:48:23.439Z,61.40
2022-10-18T10:50:45.833Z,61.10
2022-10-18T10:53:05.305Z,61.60
2022-10-18T10:55:34.523Z,62.70
2022-10-18T10:57:43.007Z,65.30
2022-10-18T10:59:52.343Z,66.00
2022-10-18T11:02:23.178Z,66.30
2022-10-18T11:04:34.249Z,68.90
2022-10-18T11:07:07.138Z,68.50
2022-10-18T11:09:33.368Z,70.30
2022-10-18T11:11:48.288Z,69.70
2022-10-18T11:14:24.222Z,70.60
2022-10-18T11:16:35.868Z,70.10
2022-10-18T11:18:44.995Z,70.10
2022-10-18T11:20:57.356Z,70.30
2022-10-18T11:23:06.860Z,71.60
2022-10-18T11:25:17.360Z,72.40
2022-10-18T11:27:28.688Z,74.70
2022-10-18T11:29:52.298Z,76.00
2022-10-18T11:32:09.216Z,76.50
2022-10-18T11:34:42.140Z,77.40
2022-10-18T11:37:22.540Z,77.50
2022-10-18T11:39:30.496Z,78.40
2022-10-18T11:41:42.692Z,78.30
2022-10-18T11:44:02.707Z,78.80
2022-10-18T11:46:18.371Z,79.70
2022-10-18T11:48:55.395Z,80.40
2022-10-18T11:51:09.278Z,81.50
2022-10-18T11:53:28.651Z,81.20
2022-10-18T11:55:46.985Z,81.60
2022-10-18T11:58:00.161Z,81.30
2022-10-18T12:00:18.896Z,80.20
2022-10-18T12:02:57.122Z,79.50
2022-10-18T12:05:22.506Z,80.10
2022-10-18T12:07:34.472Z,79.40
2022-10-18T12:09:46.414Z,80.50
2022-10-18T12:11:57.128Z,80.30
2022-10-18T12:14:06.116Z,80.90
2022-10-18T12:16:14.207Z,80.90
2022-10-18T12:18:25.235Z,81.30
2022-10-18T12:20:35.380Z,81.20
2022-10-18T12:22:49.165Z,80.90
2022-10-18T12:24:57.885Z,81.00
2022-10-18T12:27:05.678Z,82.00
2022-10-18T12:29:26.435Z,82.40
2022-10-18T12:31:39.807Z,82.40
2022-10-18T12:33:48.578Z,82.00
2022-10-18T12:36:09.480Z,82.40
2022-10-18T12:38:25.065Z,82.50
2022-10-18T12:40:40.173Z,82.40
2022-10-18T12:42:49.661Z,82.10
2022-10-18T12:45:06.619Z,82.50
2022-10-18T12:47:25.742Z,82.40
2022-10-18T12:49:35.578Z,83.30
2022-10-18T12:51:54.788Z,82.70
2022-10-18T12:54:15.180Z,83.20
2022-10-18T12:56:43.047Z,83.80
2022-10-18T12:58:50.125Z,85.70
2022-10-18T13:00:59.818Z,85.20
2022-10-18T13:03:41.977Z,84.90
2022-10-18T13:06:01.815Z,85.70
2022-10-18T13:08:49.230Z,86.40
2022-10-18T13:11:33.932Z,86.80
2022-10-18T13:14:07.178Z,87.30
2022-10-18T13:16:32.486Z,87.10
2022-10-18T13:18:52.878Z,87.00
2022-10-18T13:21:10.808Z,87.00
2022-10-18T13:23:37.944Z,86.80
2022-10-18T13:25:57.886Z,87.10
2022-10-18T13:28:20.739Z,86.60
2022-10-18T13:30:36.063Z,86.00
2022-10-18T13:32:57.352Z,86.40
2022-10-18T13:35:04.662Z,86.70
2022-10-18T13:37:25.721Z,86.80
2022-10-18T13:39:33.620Z,86.70
2022-10-18T13:42:12.843Z,86.60
2022-10-18T13:44:32.870Z,86.40
2022-10-18T13:47:18.099Z,86.70
2022-10-18T13:49:40.053Z,86.40
2022-10-18T13:51:58.168Z,86.80
2022-10-18T13:54:17.797Z,87.10
2022-10-18T13:56:49.601Z,87.30
2022-10-18T13:59:18.543Z,87.20
2022-10-18T14:01:35.656Z,87.00
2022-10-18T14:04:02.397Z,87.20
2022-10-18T14:06:12.861Z,87.60
2022-10-18T14:08:22.317Z,88.20
2022-10-18T14:10:57.257Z,88.50
2022-10-18T14:13:07.637Z,88.60
2022-10-18T14:15:20.393Z,89.00
2022-10-18T14:17:36.013Z,89.10
2022-10-18T14:19:47.358Z,89.40
2022-10-18T14:22:02.316Z,89.40
2022-10-18T14:24:21.018Z,89.40
2022-10-18T14:26:30.340Z,89.50
2022-10-18T14:28:58.653Z,89.40
2022-10-18T14:31:07.476Z,89.40
2022-10-18T14:33:31.575Z,89.30
2022-10-18T14:35:38.677Z,88.80
2022-10-18T14:37:49.829Z,88.60
2022-10-18T14:39:57.520Z,88.70
2022-10-18T14:42:05.009Z,88.40
2022-10-18T14:44:22.949Z,88.40
2022-10-18T14:46:31.794Z,89.00
2022-10-18T14:48:39.567Z,88.60
2022-10-18T14:50:48.688Z,87.90
2022-10-18T14:52:58.121Z,86.20
2022-10-18T14:55:06.539Z,85.10
2022-10-18T14:57:22.420Z,84.00
2022-10-18T14:59:32.731Z,81.10
2022-10-18T15:01:40.368Z,80.80
2022-10-18T15:03:47.852Z,80.00
2022-10-18T15:06:04.353Z,78.90
2022-10-18T15:08:14.149Z,77.90
2022-10-18T15:10:25.275Z,76.90
2022-10-18T15:12:40.939Z,76.40
2022-10-18T15:14:53.253Z,76.80
2022-10-18T15:17:04.939Z,76.20
2022-10-18T15:19:26.923Z,75.10
2022-10-18T15:21:34.098Z,74.60
2022-10-18T15:23:43.183Z,75.70
2022-10-18T15:25:50.115Z,75.40
2022-10-18T15:27:58.970Z,75.30
2022-10-18T15:30:12.039Z,75.40
2022-10-18T15:32:24.857Z,75.40
2022-10-18T15:34:32.138Z,75.50
2022-10-18T15:36:40.021Z,75.40
2022-10-18T15:38:50.044Z,75.20
2022-10-18T15:40:57.932Z,74.40
2022-10-18T15:43:06.885Z,74.70
2022-10-18T15:45:38.118Z,74.80
2022-10-18T15:48:01.927Z,73.20
2022-10-18T15:50:28.870Z,73.20
2022-10-18T15:52:44.381Z,73.70
2022-10-18T15:54:53.427Z,73.50
2022-10-18T15:57:00.601Z,73.70
2022-10-18T15:59:09.971Z,73.60
2022-10-18T16:01:23.130Z,73.90
2022-10-18T16:03:30.338Z,74.10
2022-10-18T16:05:38.590Z,74.30
2022-10-18T16:07:45.521Z,74.30
2022-10-18T16:09:54.499Z,73.70
2022-10-18T16:12:01.419Z,74.00
2022-10-18T16:14:08.243Z,74.00
2022-10-18T16:16:18.102Z,73.90
2022-10-18T16:18:25.473Z,74.10
2022-10-18T16:20:32.289Z,73.70
2022-10-18T16:22:39.556Z,73.40
2022-10-18T16:24:46.762Z,73.40
2022-10-18T16:26:55.991Z,73.50
2022-10-18T16:29:03.958Z,73.50
2022-10-18T16:31:11.653Z,73.20
2022-10-18T16:33:21.472Z,72.80
2022-10-18T16:35:28.764Z,72.40
2022-10-18T16:37:35.897Z,72.30
2022-10-18T16:39:42.821Z,71.90
2022-10-18T16:41:50.401Z,71.80
2022-10-18T16:43:59.235Z,71.40
2022-10-18T16:46:07.590Z,70.70
2022-10-18T16:48:18.406Z,70.40
2022-10-18T16:50:25.230Z,69.40
2022-10-18T16:52:32.498Z,69.60
2022-10-18T16:54:39.593Z,69.60
2022-10-18T16:56:47.814Z,69.30
2022-10-18T16:58:55.034Z,69.10
2022-10-18T17:01:06.712Z,68.40
2022-10-18T17:03:15.845Z,67.40
2022-10-18T17:05:24.258Z,67.80
2022-10-18T17:07:31.078Z,68.00
2022-10-18T17:09:38.005Z,68.00
2022-10-18T17:11:45.502Z,68.00
2022-10-18T17:13:52.515Z,68.10
2022-10-18T17:16:04.467Z,68.40
2022-10-18T17:18:15.794Z,68.50
2022-10-18T17:20:24.921Z,68.50
2022-10-18T17:22:32.053Z,67.60
2022-10-18T17:24:38.927Z,68.20
2022-10-18T17:26:46.161Z,68.80
2022-10-18T17:28:54.350Z,68.80
2022-10-18T17:31:02.882Z,69.00
2022-10-18T17:33:10.366Z,69.50
2022-10-18T17:35:17.548Z,69.40
2022-10-18T17:37:25.650Z,68.60
2022-10-18T17:39:32.988Z,68.70
2022-10-18T17:41:39.914Z,68.70
2022-10-18T17:43:47.095Z,68.80
2022-10-18T17:45:57.555Z,69.00
2022-10-18T17:48:06.511Z,68.60
2022-10-18T17:50:13.759Z,68.90
2022-10-18T17:52:20.839Z,69.00
2022-10-18T17:54:27.712Z,68.70
2022-10-18T17:56:34.795Z,68.80
2022-10-18T17:58:44.158Z,69.00
2022-10-18T18:00:51.254Z,68.90
2022-10-18T18:03:00.911Z,68.70
2022-10-18T18:05:10.408Z,68.90
2022-10-18T18:07:17.358Z,69.20
2022-10-18T18:09:24.385Z,69.30
2022-10-18T18:11:31.983Z,69.80
2022-10-18T18:13:39.002Z,70.00
2022-10-18T18:15:45.980Z,70.00
2022-10-18T18:17:57.090Z,69.80
2022-10-18T18:20:03.979Z,69.50
2022-10-18T18:22:12.681Z,69.20
2022-10-18T18:24:25.546Z,70.10
2022-10-18T18:26:35.356Z,70.60
2022-10-18T18:28:42.993Z,70.60
2022-10-18T18:30:50.024Z,70.80
2022-10-18T18:32:57.154Z,71.00
2022-10-18T18:35:04.185Z,71.10
2022-10-18T18:37:13.313Z,71.40
2022-10-18T18:39:24.997Z,71.50
2022-10-18T18:41:32.692Z,71.70
2022-10-18T18:43:40.282Z,72.00
2022-10-18T18:45:54.885Z,72.90
2022-10-18T18:48:01.817Z,73.90
2022-10-18T18:50:09.304Z,74.20
2022-10-18T18:52:17.918Z,73.40
2022-10-18T18:54:25.919Z,73.60
2022-10-18T18:56:32.825Z,74.40
2022-10-18T18:58:41.183Z,75.20
2022-10-18T19:00:48.488Z,75.60
2022-10-18T19:02:55.718Z,74.80
2022-10-18T19:05:02.595Z,74.80
2022-10-18T19:07:10.031Z,74.60
2022-10-18T19:09:23.206Z,74.60
2022-10-18T19:11:31.257Z,74.30
2022-10-18T19:13:38.384Z,74.10
2022-10-18T19:15:45.420Z,74.30
2022-10-18T19:17:52.395Z,74.50
2022-10-18T19:20:00.853Z,74.70
2022-10-18T19:22:10.593Z,77.40
2022-10-18T19:24:19.412Z,78.50
2022-10-18T19:26:33.337Z,79.00
2022-10-18T19:28:40.274Z,79.00
2022-10-18T19:30:49.993Z,78.90
2022-10-18T19:33:01.273Z,80.20
2022-10-18T19:35:10.991Z,81.20
2022-10-18T19:37:18.428Z,82.10
2022-10-18T19:39:28.730Z,82.30
2022-10-18T19:41:35.761Z,82.50
2022-10-18T19:43:42.888Z,83.20
2022-10-18T19:45:49.816Z,84.10
2022-10-18T19:47:57.204Z,84.40
2022-10-18T19:50:04.233Z,85.30
2022-10-18T19:52:13.048Z,86.00
2022-10-18T19:54:20.229Z,86.00
2022-10-18T19:56:30.485Z,86.50
2022-10-18T19:58:37.770Z,86.50
2022-10-18T20:00:44.697Z,86.60
2022-10-18T20:02:52.335Z,86.20
2022-10-18T20:04:59.314Z,86.10
2022-10-18T20:07:06.449Z,86.60
2022-10-18T20:09:19.340Z,87.20
2022-10-18T20:11:31.259Z,87.10
2022-10-18T20:13:38.691Z,87.50
2022-10-18T20:15:45.667Z,87.90
2022-10-18T20:17:52.645Z,87.60
2022-10-18T20:20:00.030Z,87.60
2022-10-18T20:22:06.903Z,88.00
2022-10-18T20:24:15.012Z,88.10
2022-10-18T20:26:23.213Z,88.80
2022-10-18T20:28:32.724Z,89.20
2022-10-18T20:30:39.829Z,89.30
2022-10-18T20:32:46.755Z,89.00
2022-10-18T20:34:53.679Z,89.20
2022-10-18T20:37:00.758Z,89.20
2022-10-18T20:39:08.862Z,88.90
2022-10-18T20:41:17.374Z,88.70
2022-10-18T20:43:24.401Z,88.90
2022-10-18T20:45:33.070Z,88.60
2022-10-18T20:47:40.301Z,88.20
2022-10-18T20:49:47.177Z,88.20
2022-10-18T20:51:54.101Z,88.40
2022-10-18T20:54:01.108Z,88.40
2022-10-18T20:56:09.644Z,88.20
2022-10-18T20:58:16.670Z,88.30
2022-10-18T21:00:23.601Z,89.30
2022-10-18T21:02:32.060Z,89.30
2022-10-18T21:04:41.499Z,89.40
2022-10-18T21:06:49.953Z,89.70
2022-10-18T21:08:57.904Z,89.40
2022-10-18T21:11:05.241Z,89.50
2022-10-18T21:13:12.113Z,89.60
2022-10-18T21:15:19.295Z,90.00
2022-10-18T21:17:26.271Z,90.30
2022-10-18T21:19:35.093Z,91.00
2022-10-18T21:21:43.347Z,91.60
2022-10-18T21:23:50.635Z,92.00
2022-10-18T21:25:57.560Z,91.80
2022-10-18T21:28:04.893Z,91.60
2022-10-18T21:32:24.737Z,92.80
2022-10-18T21:34:33.660Z,93.70
2022-10-18T21:36:41.354Z,93.90
2022-10-18T21:38:48.635Z,93.80
2022-10-18T21:40:55.715Z,94.00
2022-10-18T21:43:02.690Z,93.80
2022-10-18T21:45:11.155Z,93.50
2022-10-18T21:47:18.080Z,93.20
2022-10-18T21:49:26.030Z,93.50
2022-10-18T21:51:34.599Z,93.40
2022-10-18T21:53:41.670Z,93.00
2022-10-18T21:55:48.751Z,92.90
2022-10-18T21:57:55.985Z,93.00
2022-10-18T22:00:03.014Z,93.20
2022-10-18T22:02:10.049Z,92.90
2022-10-18T22:04:24.698Z,92.10
2022-10-18T22:08:48.175Z,92.00
2022-10-18T22:10:55.100Z,92.70
2022-10-18T22:13:02.793Z,93.10
2022-10-18T22:15:10.484Z,93.40
2022-10-18T22:17:17.361Z,93.50
2022-10-18T22:19:24.800Z,93.20
2022-10-18T22:21:34.386Z,92.80
2022-10-18T22:23:43.470Z,92.40
2022-10-18T22:25:50.492Z,92.30
2022-10-18T22:28:12.622Z,92.40
2022-10-18T22:30:18.773Z,93.00
2022-10-18T22:32:25.860Z,94.30
2022-10-18T22:34:48.145Z,93.80
2022-10-18T22:36:57.389Z,93.90
2022-10-18T22:39:04.556Z,93.70
2022-10-18T22:41:13.528Z,93.50
2022-10-18T22:43:20.299Z,93.10
2022-10-18T22:45:27.330Z,92.60
2022-10-18T22:47:34.170Z,92.20
2022-10-18T22:49:41.434Z,92.00
2022-10-18T22:51:48.363Z,92.10
2022-10-18T22:53:57.182Z,92.20
2022-10-18T22:56:04.158Z,92.10
2022-10-18T22:58:10.983Z,91.90
2022-10-18T23:00:18.419Z,91.80
2022-10-18T23:02:25.193Z,91.70
2022-10-18T23:04:31.914Z,91.70
2022-10-18T23:06:39.453Z,91.60
2022-10-18T23:08:46.019Z,91.80
2022-10-18T23:10:57.401Z,91.90
2022-10-18T23:13:04.376Z,92.00
2022-10-18T23:15:12.890Z,92.60
2022-10-18T23:17:20.020Z,92.50
2022-10-18T23:19:27.150Z,92.50
2022-10-18T23:21:33.925Z,92.50
2022-10-18T23:23:42.335Z,92.60
2022-10-18T23:25:51.705Z,92.90
2022-10-18T23:28:00.843Z,93.20
2022-10-18T23:30:09.048Z,93.20
2022-10-18T23:32:15.871Z,93.60
2022-10-18T23:34:22.643Z,93.90
2022-10-18T23:36:30.127Z,94.10
2022-10-18T23:38:38.648Z,94.70
2022-10-18T23:40:45.932Z,95.10
2022-10-18T23:42:52.762Z,95.50
2022-10-18T23:45:01.365Z,95.60
2022-10-18T23:47:08.191Z,95.40
2022-10-18T23:49:15.217Z,95.20
2022-10-18T23:51:22.295Z,94.90
2022-10-18T23:53:29.069Z,95.10
2022-10-18T23:55:36.305Z,94.60
2022-10-18T23:57:43.176Z,94.50
2022-10-18T23:59:50.257Z,94.30
